Latest Weather Observations for High Range (Wanganderry)

IDN60801

Issued at 3:03 pm EDT Monday 30 March 2015 (issued every 30 minutes, with the page automatically refreshed every 10 minutes)

About weather observations | Map of weather stations | Latest weather observations for NSW | Other Formats
Station Details ID: 068262 Name: HIGH RANGE AWS (WANGANDERRY) Lat: -34.33 Lon: 150.27 Height: 813.6 m
Data from the previous 72 hours. | See also: Recent months for locations in New South Wales
Date/Time
EDT
Temp
°C
App
Temp
°C
Dew
Point
Rel
Hum
%
Delta-T
°C
Wind Press
QNH
hPa
Press
MSL
hPa
Rain
since 9 am
mm
Dir
 
Spd
km/h
Gust
km/h
Spd
kts
Gust
kts
30/03:00pm 17.4 16.8 11.7 69 3.2 NNE 6 7 3 4 1025.0 1022.1 0.4
30/02:30pm 16.8 16.6 13.1 79 2.1 N 6 9 3 5 1025.2 1022.3 0.0
30/02:00pm 17.1 16.0 11.8 71 3.0 N 9 13 5 7 1025.3 1022.4 0.0
30/01:30pm 17.9 16.6 12.6 71 3.1 NNE 11 15 6 8 1025.5 1022.6 0.0
30/01:00pm 18.4 15.7 11.7 65 3.8 NE 17 22 9 12 1025.8 1023.0 0.0
30/12:30pm 19.6 17.2 13.8 69 3.5 ENE 19 26 10 14 1026.1 1023.3 0.0
30/12:00pm 19.0 17.8 9.5 54 5.2 ENE 6 7 3 4 1026.0 1023.2 0.0
30/11:30am 18.3 15.0 6.2 45 6.2 NNW 13 19 7 10 1026.1 1023.3 0.0
30/11:00am 18.5 14.7 6.0 44 6.4 NNW 15 19 8 10 1026.1 1023.3 0.0
30/10:30am 17.7 13.9 5.6 45 6.1 NNW 15 17 8 9 1026.3 1023.4 0.0
30/10:00am 17.6 13.8 5.9 46 5.9 N 15 17 8 9 1026.4 1023.5 0.0
30/09:30am 15.9 13.5 6.9 55 4.6 N 9 13 5 7 1026.4 1023.5 0.0
30/09:00am 13.8 11.9 10.4 80 1.8 N 11 17 6 9 1026.7 1023.8 0.0
30/08:30am 13.9 11.6 10.5 80 1.9 WNW 13 15 7 8 1026.6 1023.7 0.0
30/08:00am 13.8 11.2 10.6 81 1.7 NW 15 17 8 9 1026.0 1023.2 0.0
30/07:30am 15.0 12.2 11.4 79 2.0 NNW 17 17 9 9 1025.7 1022.9 0.0
30/07:00am 14.6 12.3 11.9 84 1.5 N 15 17 8 9 1025.5 1022.6 0.0
30/06:30am 14.7 12.5 13.2 91 0.9 NNW 17 22 9 12 1025.2 1022.3 0.0
30/06:00am 14.5 12.1 12.5 88 1.1 N 17 19 9 10 1024.7 1021.9 0.0
30/05:30am 13.9 12.7 12.8 93 0.6 N 11 13 6 7 1024.3 1021.4 0.0
30/05:00am 13.9 13.3 13.6 98 0.2 N 9 11 5 6 1024.2 1021.3 0.0
30/04:30am 13.8 13.8 13.5 98 0.2 NNE 6 6 3 3 1024.1 1021.2 0.0
30/04:00am 13.9 14.3 13.6 98 0.2 NE 4 6 2 3 1024.2 1021.3 0.0
30/03:30am 13.9 14.3 13.6 98 0.2 NE 4 6 2 3 1024.3 1021.4 0.0
30/03:00am 14.0 14.4 13.7 98 0.2 NE 4 4 2 2 1024.4 1021.5 0.0
30/02:30am 13.7 14.4 13.4 98 0.2 NNE 2 4 1 2 1024.6 1021.8 0.0
30/02:00am 13.3 13.8 12.8 97 0.3 NNE 2 2 1 1 1025.0 1022.1 0.0
30/01:30am 13.9 13.9 13.6 98 0.2 NNE 6 6 3 3 1025.0 1022.1 0.0
30/01:00am 13.6 13.8 13.1 97 0.3 NNE 4 6 2 3 1025.1 1022.2 0.0
30/12:30am 13.4 13.1 12.8 96 0.3 NNE 6 7 3 4 1025.2 1022.3 0.0
30/12:00am 13.6 13.3 12.8 95 0.5 N 6 6 3 3 1025.4 1022.5 0.0
 
Date/Time
EDT
Temp
°C
App
Temp
°C
Dew
Point
Rel
Hum
%
Delta-T
°C
Wind Press
QNH
hPa
Press
MSL
hPa
Rain
since 9 am
mm
Dir
 
Spd
km/h
Gust
km/h
Spd
kts
Gust
kts
29/11:30pm 13.8 13.6 13.0 95 0.5 N 6 7 3 4 1025.4 1022.5 0.0
29/11:00pm 13.4 12.8 12.3 93 0.6 NNE 7 9 4 5 1025.4 1022.5 0.0
29/10:30pm 13.7 13.1 12.3 91 0.8 N 7 7 4 4 1025.5 1022.6 0.0
29/10:00pm 13.7 12.9 11.8 88 1.1 NNE 7 9 4 5 1025.4 1022.5 0.0
29/09:30pm 14.3 13.5 11.8 85 1.4 ENE 7 9 4 5 1025.0 1022.1 0.0
29/09:00pm 14.2 12.8 11.0 81 1.8 NE 9 13 5 7 1024.7 1021.9 0.0
29/08:30pm 15.1 13.4 11.3 78 2.1 N 11 13 6 7 1024.4 1021.5 0.0
29/08:00pm 15.1 13.4 11.3 78 2.1 N 11 13 6 7 1024.2 1021.3 0.0
29/07:30pm 15.2 13.9 11.4 78 2.1 NNE 9 11 5 6 1024.1 1021.2 0.0
29/07:00pm 15.8 14.9 11.2 74 2.6 NE 7 9 4 5 1023.4 1020.6 0.0
29/06:30pm 17.4 16.6 11.0 66 3.6 N 6 7 3 4 1023.3 1020.4 0.0
29/06:00pm 18.8 17.8 11.1 61 4.3 ENE 7 9 4 5 1023.0 1020.1 0.0
29/05:30pm 18.8 18.4 9.8 56 5.0 NE 2 2 1 1 1023.1 1020.2 0.0
29/05:00pm 19.0 17.9 10.0 56 5.0 ENE 6 6 3 3 1022.8 1019.9 0.0
29/04:30pm 19.5 18.4 8.5 49 6.0 E 4 4 2 2 1023.0 1020.1 0.0
29/04:00pm 20.2 19.5 8.5 47 6.3 N 2 6 1 3 1023.0 1020.1 0.0
29/03:30pm 20.4 18.7 7.4 43 6.9 N 6 9 3 5 1023.0 1020.1 0.0
29/03:00pm 20.3 18.3 7.3 43 6.9 NNW 7 9 4 5 1022.9 1020.0 0.0
29/02:30pm 21.3 18.6 5.6 36 8.1 WNW 9 15 5 8 1023.0 1020.1 0.0
29/02:00pm 21.6 18.9 5.5 35 8.3 N 9 17 5 9 1023.3 1020.4 0.0
29/01:30pm 21.0 18.4 6.2 38 7.8 NW 9 17 5 9 1023.7 1020.8 0.0
29/01:00pm 20.7 18.3 8.7 46 6.5 NNW 11 20 6 11 1023.9 1021.0 0.0
29/12:30pm 19.9 17.7 7.9 46 6.4 NNW 9 15 5 8 1024.4 1021.5 0.0
29/12:00pm 18.3 16.2 6.5 46 6.1 W 7 13 4 7 1024.5 1021.7 0.0
29/11:30am 17.6 14.9 7.4 51 5.4 WNW 11 17 6 9 1024.8 1022.0 0.0
29/11:00am 16.6 14.6 8.6 59 4.3 WNW 9 15 5 8 1024.8 1022.0 0.0
29/10:30am 16.2 15.2 10.3 68 3.2 N 6 9 3 5 1024.8 1022.0 0.0
29/10:00am 14.9 12.6 10.5 75 2.4 N 13 19 7 10 1024.8 1022.0 0.0
29/09:30am 14.2 11.7 11.0 81 1.8 N 15 19 8 10 1024.8 1022.0 0.0
29/09:00am 12.3 10.9 10.9 91 0.8 NNE 9 13 5 7 1024.3 1021.4 0.0
29/08:30am 11.6 10.2 10.8 95 0.4 N 9 11 5 6 1024.0 1021.1 0.0
29/08:00am 10.2 8.4 9.6 96 0.3 N 9 13 5 7 1023.8 1020.9 0.0
29/07:30am 10.4 6.7 9.6 95 0.4 N 19 20 10 11 1023.5 1020.7 0.0
29/07:00am 10.1 6.8 9.5 96 0.3 N 17 19 9 10 1023.4 1020.6 0.0
29/06:30am 10.3 7.0 9.7 96 0.3 N 17 22 9 12 1023.0 1020.1 0.0
29/06:00am 10.0 6.7 9.4 96 0.3 N 17 20 9 11 1022.7 1019.8 0.0
29/05:30am 9.9 6.9 9.4 97 0.3 N 15 17 8 9 1022.8 1019.9 0.0
29/05:00am 9.9 7.3 9.4 97 0.3 N 13 17 7 9 1022.7 1019.8 0.0
29/04:30am 9.8 6.8 9.3 97 0.3 N 15 17 8 9 1022.7 1019.8 0.0
29/04:00am 9.7 6.7 9.2 97 0.3 N 15 17 8 9 1022.8 1019.9 0.0
29/03:30am 9.8 6.4 9.2 96 0.3 N 17 20 9 11 1023.0 1020.1 0.0
29/03:00am 10.0 6.7 9.4 96 0.3 N 17 20 9 11 1023.3 1020.4 0.0
29/02:30am 9.8 6.4 9.2 96 0.3 N 17 20 9 11 1023.4 1020.6 0.0
29/02:00am 9.9 6.1 9.1 95 0.4 NNE 19 20 10 11 1023.7 1020.8 0.0
29/01:30am 10.1 6.4 9.3 95 0.4 NNE 19 20 10 11 1023.8 1020.9 0.0
29/01:00am 9.8 6.0 9.0 95 0.4 NNE 19 20 10 11 1024.0 1021.1 0.0
29/12:30am 10.0 6.2 9.1 94 0.5 NNE 19 22 10 12 1024.2 1021.3 0.0
29/12:00am 10.3 6.9 9.2 93 0.6 NNE 17 20 9 11 1024.3 1021.4 0.0
 
Date/Time
EDT
Temp
°C
App
Temp
°C
Dew
Point
Rel
Hum
%
Delta-T
°C
Wind Press
QNH
hPa
Press
MSL
hPa
Rain
since 9 am
mm
Dir
 
Spd
km/h
Gust
km/h
Spd
kts
Gust
kts
28/11:30pm 10.8 7.1 9.4 91 0.7 NNE 19 22 10 12 1024.6 1021.8 0.0
28/11:00pm 11.2 8.3 9.5 89 0.9 NE 15 19 8 10 1024.7 1021.9 0.0
28/10:30pm 11.3 8.8 9.7 90 0.8 NNE 13 17 7 9 1025.1 1022.2 0.0
28/10:00pm 11.2 7.9 9.6 90 0.8 NE 17 20 9 11 1025.2 1022.3 0.0
28/09:30pm 10.8 7.9 9.6 92 0.6 NE 15 20 8 11 1025.0 1022.1 0.0
28/09:00pm 10.6 6.8 9.0 90 0.8 NE 19 24 10 13 1024.5 1021.7 0.0
28/08:30pm 10.9 7.9 9.2 89 0.9 ENE 15 20 8 11 1024.3 1021.4 0.0
28/08:00pm 11.3 7.9 9.2 87 1.1 ENE 17 24 9 13 1023.9 1021.0 0.0
28/07:30pm 11.8 8.8 9.2 84 1.4 ENE 15 20 8 11 1023.7 1020.8 0.0
28/07:00pm 12.9 9.1 9.2 78 1.9 ENE 19 26 10 14 1023.2 1020.3 0.0
28/06:30pm 14.4 10.3 8.8 69 3.0 NE 20 26 11 14 1022.9 1020.0 0.0
28/06:00pm 16.4 12.1 6.8 53 4.9 NE 19 24 10 13 1022.7 1019.8 0.0
28/05:30pm 17.6 14.1 7.1 50 5.5 NNE 15 20 8 11 1022.6 1019.7 0.0
28/05:00pm 18.3 14.4 7.1 48 5.9 NE 17 22 9 12 1022.5 1019.6 0.0
28/04:30pm 18.9 15.7 6.7 45 6.4 NE 13 20 7 11 1022.5 1019.6 0.0
28/04:00pm 18.4 15.3 5.6 43 6.5 NE 11 20 6 11 1022.7 1019.8 0.0
28/03:30pm 18.8 15.9 6.6 45 6.4 NE 11 19 6 10 1022.7 1019.8 0.0
28/03:00pm 19.1 17.0 6.6 44 6.5 N 7 17 4 9 1022.9 1020.0 0.0
28/02:30pm 18.3 15.4 6.5 46 6.1 NNE 11 22 6 12 1023.1 1020.2 0.0
28/02:00pm 18.1 15.1 6.0 45 6.2 NE 11 20 6 11 1023.4 1020.6 0.0
28/01:30pm 17.7 14.8 6.3 47 5.9 NE 11 20 6 11 1023.8 1020.9 0.0
28/01:00pm 17.8 14.8 6.0 46 6.0 NNE 11 19 6 10 1024.0 1021.1 0.0
28/12:30pm 16.7 13.6 5.6 48 5.6 N 11 17 6 9 1024.4 1021.5 0.0
28/12:00pm 17.2 15.0 6.4 49 5.5 NE 7 15 4 8 1024.7 1021.9 0.0
28/11:30am 15.3 12.8 5.0 50 5.1 ESE 7 13 4 7 1024.7 1021.9 0.0
28/11:00am 14.5 12.2 5.6 55 4.4 S 7 11 4 6 1024.7 1021.9 0.0
28/10:30am 14.0 11.3 5.4 56 4.2 S 9 15 5 8 1024.7 1021.9 0.0
28/10:00am 13.1 9.1 5.0 58 3.9 SSW 15 19 8 10 1024.6 1021.8 0.0
28/09:30am 12.1 7.7 4.8 61 3.5 SW 17 20 9 11 1024.4 1021.5 0.0
28/09:00am 11.0 6.1 4.2 63 3.2 WSW 19 22 10 12 1024.2 1021.3 0.0
28/08:30am 9.9 5.0 3.9 66 2.8 WSW 19 22 10 12 1024.0 1021.1 0.0
28/08:00am 9.2 4.0 3.4 67 2.6 WSW 20 24 11 13 1023.5 1020.7 0.0
28/07:30am 8.3 2.7 3.2 70 2.3 WSW 22 26 12 14 1023.1 1020.2 0.0
28/07:00am 8.3 2.3 3.2 70 2.3 WSW 24 28 13 15 1022.8 1019.9 0.0
28/06:30am 8.2 2.2 3.1 70 2.3 WSW 24 30 13 16 1022.4 1019.5 0.0
28/06:00am 8.3 2.3 3.2 70 2.3 W 24 28 13 15 1022.1 1019.2 0.0
28/05:30am 8.4 2.4 3.1 69 2.4 W 24 32 13 17 1021.8 1018.9 0.0
28/05:00am 8.5 2.5 3.1 69 2.4 W 24 30 13 16 1021.6 1018.7 0.0
28/04:30am 8.3 2.3 3.4 71 2.2 WSW 24 28 13 15 1021.5 1018.6 0.0
28/04:00am 8.6 2.6 3.2 69 2.4 WSW 24 28 13 15 1021.6 1018.7 0.0
28/03:30am 8.7 2.7 3.1 68 2.5 WSW 24 28 13 15 1021.7 1018.8 0.0
28/03:00am 9.3 2.5 3.3 66 2.7 WSW 28 33 15 18 1021.8 1018.9 0.0
28/02:30am 9.0 3.4 3.2 67 2.6 WSW 22 28 12 15 1022.1 1019.2 0.0
28/02:00am 9.2 2.8 3.2 66 2.7 WSW 26 32 14 17 1022.3 1019.3 0.0
28/01:30am 9.5 3.1 3.3 65 2.8 WSW 26 32 14 17 1022.4 1019.5 0.0
28/01:00am 9.7 4.1 3.4 65 2.9 WSW 22 28 12 15 1022.5 1019.6 0.0
28/12:30am 9.9 3.9 3.4 64 3.0 WSW 24 33 13 18 1022.5 1019.6 0.0
28/12:00am 10.6 3.1 3.4 61 3.3 WSW 32 39 17 21 1022.3 1019.3 0.0
 
Date/Time
EDT
Temp
°C
App
Temp
°C
Dew
Point
Rel
Hum
%
Delta-T
°C
Wind Press
QNH
hPa
Press
MSL
hPa
Rain
since 9 am
mm
Dir
 
Spd
km/h
Gust
km/h
Spd
kts
Gust
kts
27/11:30pm 10.8 3.3 3.4 60 3.4 WSW 32 39 17 21 1022.5 1019.6 0.0
27/11:00pm 10.6 3.9 3.4 61 3.3 WSW 28 39 15 21 1022.4 1019.5 0.0
27/10:30pm 11.1 4.0 3.4 59 3.6 W 30 39 16 21 1022.1 1019.2 0.0
27/10:00pm 10.7 4.7 3.5 61 3.3 WSW 24 30 13 16 1022.1 1019.2 0.0
27/09:30pm 11.1 5.9 3.4 59 3.6 WSW 20 28 11 15 1022.3 1019.3 0.0
27/09:00pm 11.7 5.7 3.2 56 3.9 WSW 24 37 13 20 1021.9 1019.0 0.0
27/08:30pm 12.1 6.1 3.1 54 4.2 WSW 24 35 13 19 1021.5 1018.6 0.0
27/08:00pm 12.3 5.5 3.0 53 4.3 WSW 28 35 15 19 1020.7 1017.8 0.0
27/07:30pm 12.3 6.2 3.0 53 4.3 W 24 35 13 19 1020.4 1017.5 0.0
27/07:00pm 13.1 5.9 3.2 51 4.6 W 30 41 16 22 1019.9 1016.9 0.0
27/06:30pm 14.3 6.1 2.9 46 5.3 W 35 48 19 26 1019.8 1016.8 0.0
27/06:07pm 15.0 7.8 3.2 45 5.6 W 30 48 16 26 1019.7 1016.7 0.0
27/06:00pm 15.2 6.6 2.7 43 5.9 W 37 48 20 26 1019.5 1016.6 0.0
27/05:33pm 16.0 8.0 3.8 44 5.9 W 35 54 19 29 1019.4 1016.5 0.0
27/05:30pm 15.9 7.1 3.7 44 5.9 W 39 54 21 29 1019.3 1016.4 0.0
27/05:00pm 16.4 7.6 3.5 42 6.2 W 39 56 21 30 1019.2 1016.3 0.0
27/04:50pm 16.3 7.8 3.4 42 6.2 W 37 57 20 31 1019.1 1016.2 0.0
27/04:30pm 16.9 9.2 3.6 41 6.4 W 33 48 18 26 1019.2 1016.3 0.0
27/04:20pm 16.7 8.9 3.1 40 6.5 W 33 52 18 28 1019.2 1016.3 0.0
27/04:00pm 16.9 8.7 2.9 39 6.7 W 35 50 19 27 1019.2 1016.3 0.0
27/03:30pm 16.9 8.8 3.2 40 6.6 WSW 35 54 19 29 1019.3 1016.4 0.0
27/03:07pm 17.8 10.4 4.0 40 6.8 W 32 50 17 27 1019.5 1016.6 0.0

Other Formats:

Comma delimited format used in spreadsheet applications
http://www.bom.gov.au/fwo/IDN60801/IDN60801.99742.axf

JavaScript Object Notation format (JSON) in row-major order
http://www.bom.gov.au/fwo/IDN60801/IDN60801.99742.json